createdAt,value
2019-06-15T16:31:29.392Z,6.17
2019-06-15T16:37:48.986Z,6.53
2019-06-15T16:40:22.334Z,6.83
2019-06-15T16:42:51.229Z,7.20
2019-06-15T16:45:20.084Z,7.90
2019-06-15T16:47:48.916Z,6.23
2019-06-15T16:50:17.800Z,6.23
2019-06-15T16:52:46.999Z,7.67
2019-06-15T16:55:16.820Z,6.57
2019-06-15T16:57:46.618Z,6.83
2019-06-15T17:00:21.521Z,6.53
2019-06-15T17:02:50.375Z,6.73
2019-06-15T17:05:19.454Z,6.83
2019-06-15T17:07:48.302Z,6.70
2019-06-15T17:10:20.077Z,6.90
2019-06-15T17:12:49.032Z,7.40
2019-06-15T17:15:17.988Z,6.90
2019-06-15T17:17:46.992Z,7.30
2019-06-15T17:20:18.816Z,7.47
2019-06-15T17:22:47.711Z,7.80
2019-06-15T17:25:16.752Z,8.17
2019-06-15T17:27:46.976Z,8.07
2019-06-15T17:30:17.183Z,7.17
2019-06-15T17:32:46.322Z,7.70
2019-06-15T17:35:16.951Z,7.53
2019-06-15T17:37:47.037Z,6.00
2019-06-15T17:40:16.303Z,7.57
2019-06-15T17:42:45.295Z,8.70
2019-06-15T17:45:16.151Z,7.70
2019-06-15T17:47:46.702Z,8.17
2019-06-15T17:50:17.121Z,10.10
2019-06-15T17:52:46.798Z,8.57
2019-06-15T17:55:17.893Z,7.93
2019-06-15T17:57:46.581Z,7.07
2019-06-15T18:00:17.149Z,8.57
2019-06-15T18:02:46.033Z,7.60
2019-06-15T18:05:15.030Z,6.83
2019-06-15T18:07:43.879Z,7.80
2019-06-15T18:10:12.926Z,7.90
2019-06-15T18:12:41.816Z,8.40
2019-06-15T18:15:10.957Z,10.00
2019-06-15T18:17:39.825Z,8.13
2019-06-15T18:20:08.781Z,8.77
2019-06-15T18:22:37.634Z,9.60
2019-06-15T18:25:06.684Z,9.30
2019-06-15T18:27:37.344Z,9.03
2019-06-15T18:30:09.512Z,8.63
2019-06-15T18:32:38.377Z,9.40
2019-06-15T18:35:07.620Z,7.73
2019-06-15T18:37:37.347Z,7.73
2019-06-15T18:40:07.550Z,8.30
2019-06-15T18:42:36.912Z,8.07
2019-06-15T18:45:08.973Z,8.40
2019-06-15T18:47:38.030Z,7.43
2019-06-15T18:50:09.073Z,8.57
2019-06-15T18:52:38.164Z,7.67
2019-06-15T18:55:09.976Z,8.93
2019-06-15T18:57:39.070Z,8.03
2019-06-15T19:00:08.543Z,8.10
2019-06-15T19:02:38.127Z,7.90
2019-06-15T19:05:08.743Z,8.10
2019-06-15T19:07:37.948Z,7.10
2019-06-15T19:10:07.486Z,7.00
2019-06-15T19:12:36.573Z,6.30
2019-06-15T19:15:07.486Z,6.67
2019-06-15T19:17:37.084Z,5.43
2019-06-15T19:20:07.077Z,6.30
2019-06-15T19:22:35.972Z,5.00
2019-06-15T19:25:06.694Z,6.37
2019-06-15T19:27:36.641Z,5.57
2019-06-15T19:30:07.129Z,5.03
2019-06-15T19:32:38.615Z,4.90
2019-06-15T19:35:07.537Z,5.00
2019-06-15T19:37:37.023Z,4.47
2019-06-15T19:40:09.070Z,5.27
2019-06-15T19:42:38.105Z,5.67
2019-06-15T19:45:11.294Z,4.60
2019-06-15T19:47:40.243Z,5.80
2019-06-15T19:50:09.987Z,4.50
2019-06-15T19:52:39.098Z,4.50
2019-06-15T19:55:08.205Z,4.30
2019-06-15T19:57:37.149Z,4.73
2019-06-15T20:00:07.938Z,4.30
2019-06-15T20:02:36.783Z,4.90
2019-06-15T20:05:09.888Z,5.10
2019-06-15T20:07:38.912Z,4.53
2019-06-15T20:10:10.766Z,5.30
2019-06-15T20:12:38.900Z,5.30
2019-06-15T20:15:09.836Z,4.47
2019-06-15T20:17:38.841Z,4.80
2019-06-15T20:20:09.789Z,5.00
2019-06-15T20:22:38.628Z,3.97
2019-06-15T20:25:08.007Z,4.47
2019-06-15T20:27:37.699Z,4.50
2019-06-15T20:30:07.937Z,4.17
2019-06-15T20:32:37.088Z,4.93
2019-06-15T20:35:16.642Z,4.63
2019-06-15T20:37:39.492Z,4.47
2019-06-15T20:40:09.371Z,3.70
2019-06-15T20:42:38.437Z,4.27
2019-06-15T20:45:09.469Z,3.90
2019-06-15T20:47:38.355Z,4.30
2019-06-15T20:50:24.360Z,4.20
2019-06-15T20:52:39.195Z,4.30
2019-06-15T20:55:08.428Z,4.60
2019-06-15T20:57:37.416Z,3.40
2019-06-15T21:00:09.266Z,3.30
2019-06-15T21:02:38.090Z,3.80
2019-06-15T21:05:08.177Z,4.33
2019-06-15T21:07:37.028Z,3.90
2019-06-15T21:10:09.885Z,4.00
2019-06-15T21:12:40.109Z,4.07
2019-06-15T21:15:18.983Z,3.97
2019-06-15T21:17:43.573Z,4.00
2019-06-15T21:20:12.856Z,4.33
2019-06-15T21:22:41.696Z,3.80
2019-06-15T21:25:11.029Z,3.63
2019-06-15T21:27:40.081Z,4.20
2019-06-15T21:30:10.130Z,3.80
2019-06-15T21:32:38.967Z,3.97
2019-06-15T21:35:08.639Z,3.43
2019-06-15T21:37:37.487Z,3.90
2019-06-15T21:40:07.334Z,3.77
2019-06-15T21:42:36.392Z,3.23
2019-06-15T21:45:07.527Z,3.77
2019-06-15T21:47:37.133Z,3.50
2019-06-15T21:50:11.285Z,3.83
2019-06-15T21:52:40.239Z,4.37
2019-06-15T21:55:09.485Z,3.57
2019-06-15T21:57:38.611Z,3.83
2019-06-15T22:00:13.631Z,3.80
2019-06-15T22:02:42.617Z,3.27
2019-06-15T22:05:11.461Z,3.50
2019-06-15T22:07:40.326Z,3.60
2019-06-15T22:10:10.393Z,4.10
2019-06-15T22:12:39.241Z,3.97
2019-06-15T22:15:10.161Z,3.73
2019-06-15T22:17:41.323Z,3.90
2019-06-15T22:20:13.867Z,4.20
2019-06-15T22:22:47.057Z,5.00
2019-06-15T22:25:23.323Z,4.53
2019-06-15T22:27:56.072Z,4.30
2019-06-15T22:30:27.766Z,3.97
2019-06-15T22:32:57.574Z,3.97
2019-06-15T22:35:27.045Z,4.40
2019-06-15T22:37:56.985Z,4.97
2019-06-15T22:40:27.002Z,4.57
2019-06-15T22:42:56.304Z,4.47
2019-06-15T22:45:27.560Z,4.03
2019-06-15T22:47:57.943Z,4.17
2019-06-15T22:50:27.771Z,4.20
2019-06-15T22:52:58.441Z,4.40
2019-06-15T22:55:28.458Z,4.23
2019-06-15T22:57:59.024Z,3.73
2019-06-15T23:00:29.121Z,4.17
2019-06-15T23:02:59.810Z,4.53
2019-06-15T23:05:30.205Z,4.80
2019-06-15T23:08:01.039Z,4.43
2019-06-15T23:10:30.764Z,4.00
2019-06-15T23:13:02.558Z,4.23
2019-06-15T23:15:33.788Z,3.90
2019-06-15T23:18:06.549Z,3.83
2019-06-15T23:20:33.502Z,4.77
2019-06-15T23:23:07.811Z,3.90
2019-06-15T23:25:37.817Z,4.63
2019-06-15T23:28:08.358Z,4.33
2019-06-15T23:30:39.919Z,3.97
2019-06-15T23:33:10.694Z,4.30
2019-06-15T23:35:42.862Z,4.20
2019-06-15T23:38:12.904Z,4.10
2019-06-15T23:40:46.632Z,4.67
2019-06-15T23:43:16.692Z,3.53
2019-06-15T23:45:48.356Z,3.23
2019-06-15T23:48:18.924Z,3.60
2019-06-15T23:50:49.625Z,4.43
2019-06-15T23:53:20.133Z,4.00
2019-06-15T23:55:50.501Z,4.33
2019-06-15T23:58:22.047Z,4.13
